sensor_id;sensor_type;location;lat;lon;timestamp;temperature;humidity
80937;DHT22;70395;51.382;7.074;2024-03-22T00:01:45;13.20;62.80
80937;DHT22;70395;51.382;7.074;2024-03-22T00:04:14;13.20;62.90
80937;DHT22;70395;51.382;7.074;2024-03-22T00:06:45;13.30;63.10
80937;DHT22;70395;51.382;7.074;2024-03-22T00:09:12;13.20;63.10
80937;DHT22;70395;51.382;7.074;2024-03-22T00:11:41;13.20;63.20
80937;DHT22;70395;51.382;7.074;2024-03-22T00:14:09;13.30;63.50
80937;DHT22;70395;51.382;7.074;2024-03-22T00:16:35;13.30;63.30
80937;DHT22;70395;51.382;7.074;2024-03-22T00:19:02;13.30;63.40
80937;DHT22;70395;51.382;7.074;2024-03-22T00:21:28;13.30;63.30
80937;DHT22;70395;51.382;7.074;2024-03-22T00:23:55;13.30;63.50
80937;DHT22;70395;51.382;7.074;2024-03-22T00:26:21;13.40;63.30
80937;DHT22;70395;51.382;7.074;2024-03-22T00:28:47;13.40;63.40
80937;DHT22;70395;51.382;7.074;2024-03-22T00:31:13;13.50;63.30
80937;DHT22;70395;51.382;7.074;2024-03-22T00:33:39;13.50;63.30
80937;DHT22;70395;51.382;7.074;2024-03-22T00:36:05;13.50;63.40
80937;DHT22;70395;51.382;7.074;2024-03-22T00:38:31;13.60;63.20
80937;DHT22;70395;51.382;7.074;2024-03-22T00:40:58;13.60;63.20
80937;DHT22;70395;51.382;7.074;2024-03-22T00:43:24;13.60;63.20
80937;DHT22;70395;51.382;7.074;2024-03-22T00:45:49;13.70;63.30
80937;DHT22;70395;51.382;7.074;2024-03-22T00:48:15;13.70;63.20
80937;DHT22;70395;51.382;7.074;2024-03-22T00:50:41;13.70;63.20
80937;DHT22;70395;51.382;7.074;2024-03-22T00:53:07;13.70;63.20
80937;DHT22;70395;51.382;7.074;2024-03-22T00:55:35;13.80;63.50
80937;DHT22;70395;51.382;7.074;2024-03-22T00:58:01;13.80;63.50
80937;DHT22;70395;51.382;7.074;2024-03-22T01:00:27;13.80;63.90
80937;DHT22;70395;51.382;7.074;2024-03-22T01:02:52;13.80;63.70
80937;DHT22;70395;51.382;7.074;2024-03-22T01:05:18;13.90;63.90
80937;DHT22;70395;51.382;7.074;2024-03-22T01:07:44;13.90;63.80
80937;DHT22;70395;51.382;7.074;2024-03-22T01:10:11;13.90;63.60
80937;DHT22;70395;51.382;7.074;2024-03-22T01:12:38;14.00;63.70
80937;DHT22;70395;51.382;7.074;2024-03-22T01:15:05;14.00;63.90
80937;DHT22;70395;51.382;7.074;2024-03-22T01:17:32;14.00;63.70
80937;DHT22;70395;51.382;7.074;2024-03-22T01:19:58;14.10;63.50
80937;DHT22;70395;51.382;7.074;2024-03-22T01:22:24;14.10;63.30
80937;DHT22;70395;51.382;7.074;2024-03-22T01:24:50;14.10;63.50
80937;DHT22;70395;51.382;7.074;2024-03-22T01:27:16;14.10;64.40
80937;DHT22;70395;51.382;7.074;2024-03-22T01:29:41;14.10;63.30
80937;DHT22;70395;51.382;7.074;2024-03-22T01:32:07;14.20;63.40
80937;DHT22;70395;51.382;7.074;2024-03-22T01:34:33;14.20;63.30
80937;DHT22;70395;51.382;7.074;2024-03-22T01:37:00;14.20;63.60
80937;DHT22;70395;51.382;7.074;2024-03-22T01:39:26;14.20;63.60
80937;DHT22;70395;51.382;7.074;2024-03-22T01:41:52;14.20;63.30
80937;DHT22;70395;51.382;7.074;2024-03-22T01:44:18;14.20;63.30
80937;DHT22;70395;51.382;7.074;2024-03-22T01:46:44;14.20;63.30
80937;DHT22;70395;51.382;7.074;2024-03-22T01:49:15;14.20;63.40
80937;DHT22;70395;51.382;7.074;2024-03-22T01:51:42;14.20;63.20
80937;DHT22;70395;51.382;7.074;2024-03-22T01:54:09;14.30;63.20
80937;DHT22;70395;51.382;7.074;2024-03-22T01:56:38;14.30;63.30
80937;DHT22;70395;51.382;7.074;2024-03-22T01:59:06;14.30;63.30
80937;DHT22;70395;51.382;7.074;2024-03-22T02:01:32;14.30;63.30
80937;DHT22;70395;51.382;7.074;2024-03-22T02:03:59;14.30;63.30
80937;DHT22;70395;51.382;7.074;2024-03-22T02:06:26;14.30;63.30
80937;DHT22;70395;51.382;7.074;2024-03-22T02:08:52;14.30;63.30
80937;DHT22;70395;51.382;7.074;2024-03-22T02:11:18;14.30;63.20
80937;DHT22;70395;51.382;7.074;2024-03-22T02:13:44;14.30;63.20
80937;DHT22;70395;51.382;7.074;2024-03-22T02:16:10;14.30;63.10
80937;DHT22;70395;51.382;7.074;2024-03-22T02:18:36;14.40;63.30
80937;DHT22;70395;51.382;7.074;2024-03-22T02:21:02;14.30;63.40
80937;DHT22;70395;51.382;7.074;2024-03-22T02:23:39;14.30;63.30
80937;DHT22;70395;51.382;7.074;2024-03-22T02:26:06;14.30;63.60
80937;DHT22;70395;51.382;7.074;2024-03-22T02:28:34;14.40;63.40
80937;DHT22;70395;51.382;7.074;2024-03-22T02:31:02;14.30;63.60
80937;DHT22;70395;51.382;7.074;2024-03-22T02:33:29;14.30;63.50
80937;DHT22;70395;51.382;7.074;2024-03-22T02:35:55;14.30;64.50
80937;DHT22;70395;51.382;7.074;2024-03-22T02:38:22;14.30;63.70
80937;DHT22;70395;51.382;7.074;2024-03-22T02:40:49;14.40;63.50
80937;DHT22;70395;51.382;7.074;2024-03-22T02:43:16;14.30;63.60
80937;DHT22;70395;51.382;7.074;2024-03-22T02:45:44;14.40;63.70
80937;DHT22;70395;51.382;7.074;2024-03-22T02:48:11;14.40;63.70
80937;DHT22;70395;51.382;7.074;2024-03-22T02:50:37;14.30;63.70
80937;DHT22;70395;51.382;7.074;2024-03-22T02:53:04;14.30;64.00
80937;DHT22;70395;51.382;7.074;2024-03-22T02:55:35;14.30;63.70
80937;DHT22;70395;51.382;7.074;2024-03-22T02:58:02;14.30;64.00
80937;DHT22;70395;51.382;7.074;2024-03-22T03:00:28;14.30;64.10
80937;DHT22;70395;51.382;7.074;2024-03-22T03:02:54;14.30;64.00
80937;DHT22;70395;51.382;7.074;2024-03-22T03:05:20;14.30;64.30
80937;DHT22;70395;51.382;7.074;2024-03-22T03:07:45;14.30;64.30
80937;DHT22;70395;51.382;7.074;2024-03-22T03:10:12;14.30;64.40
80937;DHT22;70395;51.382;7.074;2024-03-22T03:12:38;14.30;64.40
80937;DHT22;70395;51.382;7.074;2024-03-22T03:15:04;14.30;64.30
80937;DHT22;70395;51.382;7.074;2024-03-22T03:17:30;14.30;64.50
80937;DHT22;70395;51.382;7.074;2024-03-22T03:19:56;14.30;64.60
80937;DHT22;70395;51.382;7.074;2024-03-22T03:22:22;14.20;65.30
80937;DHT22;70395;51.382;7.074;2024-03-22T03:24:48;14.30;64.60
80937;DHT22;70395;51.382;7.074;2024-03-22T03:27:13;14.30;64.60
80937;DHT22;70395;51.382;7.074;2024-03-22T03:29:39;14.20;64.30
80937;DHT22;70395;51.382;7.074;2024-03-22T03:32:05;14.30;64.50
80937;DHT22;70395;51.382;7.074;2024-03-22T03:34:31;14.30;64.50
80937;DHT22;70395;51.382;7.074;2024-03-22T03:36:56;14.20;64.40
80937;DHT22;70395;51.382;7.074;2024-03-22T03:39:26;14.20;64.20
80937;DHT22;70395;51.382;7.074;2024-03-22T03:41:52;14.20;64.20
80937;DHT22;70395;51.382;7.074;2024-03-22T03:44:18;14.20;64.50
80937;DHT22;70395;51.382;7.074;2024-03-22T03:46:44;14.20;64.50
80937;DHT22;70395;51.382;7.074;2024-03-22T03:49:09;14.20;64.20
80937;DHT22;70395;51.382;7.074;2024-03-22T03:51:35;14.20;64.50
80937;DHT22;70395;51.382;7.074;2024-03-22T03:54:01;14.20;64.40
80937;DHT22;70395;51.382;7.074;2024-03-22T03:56:27;14.20;64.30
80937;DHT22;70395;51.382;7.074;2024-03-22T03:58:53;14.10;64.10
80937;DHT22;70395;51.382;7.074;2024-03-22T04:01:19;14.10;64.10
80937;DHT22;70395;51.382;7.074;2024-03-22T04:03:45;14.10;64.10
80937;DHT22;70395;51.382;7.074;2024-03-22T04:06:11;14.10;64.40
80937;DHT22;70395;51.382;7.074;2024-03-22T04:08:36;14.00;64.40
80937;DHT22;70395;51.382;7.074;2024-03-22T04:11:02;14.00;64.30
80937;DHT22;70395;51.382;7.074;2024-03-22T04:13:28;14.00;64.20
80937;DHT22;70395;51.382;7.074;2024-03-22T04:15:54;14.00;64.40
80937;DHT22;70395;51.382;7.074;2024-03-22T04:18:24;13.90;64.20
80937;DHT22;70395;51.382;7.074;2024-03-22T04:20:57;13.90;64.70
80937;DHT22;70395;51.382;7.074;2024-03-22T04:23:24;13.80;64.50
80937;DHT22;70395;51.382;7.074;2024-03-22T04:25:57;13.80;64.60
80937;DHT22;70395;51.382;7.074;2024-03-22T04:28:27;13.80;64.60
80937;DHT22;70395;51.382;7.074;2024-03-22T04:31:00;13.80;65.00
80937;DHT22;70395;51.382;7.074;2024-03-22T04:33:31;13.70;64.70
80937;DHT22;70395;51.382;7.074;2024-03-22T04:35:59;13.70;64.90
80937;DHT22;70395;51.382;7.074;2024-03-22T04:38:26;13.70;64.90
80937;DHT22;70395;51.382;7.074;2024-03-22T04:40:53;13.70;64.70
80937;DHT22;70395;51.382;7.074;2024-03-22T04:43:20;13.70;65.00
80937;DHT22;70395;51.382;7.074;2024-03-22T04:45:47;13.70;65.00
80937;DHT22;70395;51.382;7.074;2024-03-22T04:48:19;13.80;64.90
80937;DHT22;70395;51.382;7.074;2024-03-22T04:50:47;13.80;64.80
80937;DHT22;70395;51.382;7.074;2024-03-22T04:53:16;13.80;65.00
80937;DHT22;70395;51.382;7.074;2024-03-22T04:55:43;13.80;64.80
80937;DHT22;70395;51.382;7.074;2024-03-22T04:58:14;13.80;64.70
80937;DHT22;70395;51.382;7.074;2024-03-22T05:00:41;14.00;64.80
80937;DHT22;70395;51.382;7.074;2024-03-22T05:03:08;13.90;64.50
80937;DHT22;70395;51.382;7.074;2024-03-22T05:05:34;13.90;64.40
80937;DHT22;70395;51.382;7.074;2024-03-22T05:08:01;13.90;64.30
80937;DHT22;70395;51.382;7.074;2024-03-22T05:10:28;13.90;64.30
80937;DHT22;70395;51.382;7.074;2024-03-22T05:12:55;13.90;64.20
80937;DHT22;70395;51.382;7.074;2024-03-22T05:15:21;14.00;64.20
80937;DHT22;70395;51.382;7.074;2024-03-22T05:17:48;14.00;64.20
80937;DHT22;70395;51.382;7.074;2024-03-22T05:20:14;14.00;64.20
80937;DHT22;70395;51.382;7.074;2024-03-22T05:22:42;14.00;64.00
80937;DHT22;70395;51.382;7.074;2024-03-22T05:25:08;14.00;63.90
80937;DHT22;70395;51.382;7.074;2024-03-22T05:27:35;14.00;63.80
80937;DHT22;70395;51.382;7.074;2024-03-22T05:30:01;14.00;63.80
80937;DHT22;70395;51.382;7.074;2024-03-22T05:32:29;14.00;63.70
80937;DHT22;70395;51.382;7.074;2024-03-22T05:34:55;14.10;63.60
80937;DHT22;70395;51.382;7.074;2024-03-22T05:37:22;14.10;63.50
80937;DHT22;70395;51.382;7.074;2024-03-22T05:39:48;14.10;63.40
80937;DHT22;70395;51.382;7.074;2024-03-22T05:42:14;14.10;63.20
80937;DHT22;70395;51.382;7.074;2024-03-22T05:44:40;14.10;63.10
80937;DHT22;70395;51.382;7.074;2024-03-22T05:47:06;14.20;63.20
80937;DHT22;70395;51.382;7.074;2024-03-22T05:49:31;14.20;63.10
80937;DHT22;70395;51.382;7.074;2024-03-22T05:51:57;14.20;62.90
80937;DHT22;70395;51.382;7.074;2024-03-22T05:54:23;14.20;62.90
80937;DHT22;70395;51.382;7.074;2024-03-22T05:56:49;14.20;62.80
80937;DHT22;70395;51.382;7.074;2024-03-22T05:59:15;14.20;62.80
80937;DHT22;70395;51.382;7.074;2024-03-22T06:01:41;14.20;62.70
80937;DHT22;70395;51.382;7.074;2024-03-22T06:04:06;14.20;62.70
80937;DHT22;70395;51.382;7.074;2024-03-22T06:06:34;14.20;62.70
80937;DHT22;70395;51.382;7.074;2024-03-22T06:09:04;14.30;62.90
80937;DHT22;70395;51.382;7.074;2024-03-22T06:11:33;14.30;63.00
80937;DHT22;70395;51.382;7.074;2024-03-22T06:14:00;14.30;62.70
80937;DHT22;70395;51.382;7.074;2024-03-22T06:16:26;14.30;62.50
80937;DHT22;70395;51.382;7.074;2024-03-22T06:18:52;14.30;62.50
80937;DHT22;70395;51.382;7.074;2024-03-22T06:21:18;14.30;62.60
80937;DHT22;70395;51.382;7.074;2024-03-22T06:23:50;14.30;62.50
80937;DHT22;70395;51.382;7.074;2024-03-22T06:26:17;14.40;62.50
80937;DHT22;70395;51.382;7.074;2024-03-22T06:28:43;14.40;62.50
80937;DHT22;70395;51.382;7.074;2024-03-22T06:31:09;14.40;62.50
80937;DHT22;70395;51.382;7.074;2024-03-22T06:33:35;14.40;62.50
80937;DHT22;70395;51.382;7.074;2024-03-22T06:36:02;14.50;62.40
80937;DHT22;70395;51.382;7.074;2024-03-22T06:38:29;14.50;62.40
80937;DHT22;70395;51.382;7.074;2024-03-22T06:40:54;14.60;62.40
80937;DHT22;70395;51.382;7.074;2024-03-22T06:43:20;14.60;62.40
80937;DHT22;70395;51.382;7.074;2024-03-22T06:45:46;14.60;62.20
80937;DHT22;70395;51.382;7.074;2024-03-22T06:48:13;14.70;62.10
80937;DHT22;70395;51.382;7.074;2024-03-22T06:50:41;14.80;62.00
80937;DHT22;70395;51.382;7.074;2024-03-22T06:53:07;14.90;62.10
80937;DHT22;70395;51.382;7.074;2024-03-22T06:55:35;14.90;61.90
80937;DHT22;70395;51.382;7.074;2024-03-22T06:58:01;15.00;61.70
80937;DHT22;70395;51.382;7.074;2024-03-22T07:00:28;15.00;61.60
80937;DHT22;70395;51.382;7.074;2024-03-22T07:02:53;15.10;61.60
80937;DHT22;70395;51.382;7.074;2024-03-22T07:05:21;15.10;61.30
80937;DHT22;70395;51.382;7.074;2024-03-22T07:07:47;15.10;61.20
80937;DHT22;70395;51.382;7.074;2024-03-22T07:10:15;15.20;61.30
80937;DHT22;70395;51.382;7.074;2024-03-22T07:12:41;15.20;61.10
80937;DHT22;70395;51.382;7.074;2024-03-22T07:15:07;15.20;61.20
80937;DHT22;70395;51.382;7.074;2024-03-22T07:17:33;15.20;61.10
80937;DHT22;70395;51.382;7.074;2024-03-22T07:19:59;15.20;61.00
80937;DHT22;70395;51.382;7.074;2024-03-22T07:22:25;15.20;61.10
80937;DHT22;70395;51.382;7.074;2024-03-22T07:24:51;15.30;61.20
80937;DHT22;70395;51.382;7.074;2024-03-22T07:27:17;15.30;61.30
80937;DHT22;70395;51.382;7.074;2024-03-22T07:29:44;15.40;61.10
80937;DHT22;70395;51.382;7.074;2024-03-22T07:32:10;15.50;61.40
80937;DHT22;70395;51.382;7.074;2024-03-22T07:34:36;15.70;61.20
80937;DHT22;70395;51.382;7.074;2024-03-22T07:37:02;15.90;60.40
80937;DHT22;70395;51.382;7.074;2024-03-22T07:39:29;16.00;60.50
80937;DHT22;70395;51.382;7.074;2024-03-22T07:41:55;16.20;60.00
80937;DHT22;70395;51.382;7.074;2024-03-22T07:44:24;16.30;59.90
80937;DHT22;70395;51.382;7.074;2024-03-22T07:46:51;16.50;59.40
80937;DHT22;70395;51.382;7.074;2024-03-22T07:49:17;16.60;59.30
80937;DHT22;70395;51.382;7.074;2024-03-22T07:51:44;16.70;59.40
80937;DHT22;70395;51.382;7.074;2024-03-22T07:54:10;16.70;58.90
80937;DHT22;70395;51.382;7.074;2024-03-22T07:56:36;16.80;58.80
80937;DHT22;70395;51.382;7.074;2024-03-22T07:59:02;16.80;58.30
80937;DHT22;70395;51.382;7.074;2024-03-22T08:01:28;16.80;58.60
80937;DHT22;70395;51.382;7.074;2024-03-22T08:03:54;16.80;58.90
80937;DHT22;70395;51.382;7.074;2024-03-22T08:06:19;16.90;58.90
80937;DHT22;70395;51.382;7.074;2024-03-22T08:08:46;16.90;58.90
80937;DHT22;70395;51.382;7.074;2024-03-22T08:11:11;16.90;58.70
80937;DHT22;70395;51.382;7.074;2024-03-22T08:13:37;16.90;58.70
80937;DHT22;70395;51.382;7.074;2024-03-22T08:16:04;16.90;58.50
80937;DHT22;70395;51.382;7.074;2024-03-22T08:18:31;16.90;58.30
80937;DHT22;70395;51.382;7.074;2024-03-22T08:21:01;16.90;58.50
80937;DHT22;70395;51.382;7.074;2024-03-22T08:23:28;17.00;58.50
80937;DHT22;70395;51.382;7.074;2024-03-22T08:25:54;17.00;58.20
80937;DHT22;70395;51.382;7.074;2024-03-22T08:28:20;17.10;58.70
80937;DHT22;70395;51.382;7.074;2024-03-22T08:30:45;17.30;58.30
80937;DHT22;70395;51.382;7.074;2024-03-22T08:33:11;17.60;57.90
80937;DHT22;70395;51.382;7.074;2024-03-22T08:35:37;17.80;57.60
80937;DHT22;70395;51.382;7.074;2024-03-22T08:38:04;18.00;57.10
80937;DHT22;70395;51.382;7.074;2024-03-22T08:40:38;18.10;56.20
80937;DHT22;70395;51.382;7.074;2024-03-22T08:43:05;18.20;55.60
80937;DHT22;70395;51.382;7.074;2024-03-22T08:45:33;18.30;55.80
80937;DHT22;70395;51.382;7.074;2024-03-22T08:47:59;18.30;55.30
80937;DHT22;70395;51.382;7.074;2024-03-22T08:50:25;18.40;55.00
80937;DHT22;70395;51.382;7.074;2024-03-22T08:52:51;18.30;53.80
80937;DHT22;70395;51.382;7.074;2024-03-22T08:55:17;18.30;54.20
80937;DHT22;70395;51.382;7.074;2024-03-22T08:57:43;18.20;53.00
80937;DHT22;70395;51.382;7.074;2024-03-22T09:00:10;18.20;53.70
80937;DHT22;70395;51.382;7.074;2024-03-22T09:02:36;18.20;53.70
80937;DHT22;70395;51.382;7.074;2024-03-22T09:05:06;18.10;53.70
80937;DHT22;70395;51.382;7.074;2024-03-22T09:07:34;18.10;53.80
80937;DHT22;70395;51.382;7.074;2024-03-22T09:10:00;18.10;53.40
80937;DHT22;70395;51.382;7.074;2024-03-22T09:12:25;18.20;53.70
80937;DHT22;70395;51.382;7.074;2024-03-22T09:14:51;18.20;53.40
80937;DHT22;70395;51.382;7.074;2024-03-22T09:17:17;18.20;53.60
80937;DHT22;70395;51.382;7.074;2024-03-22T09:19:43;18.30;52.90
80937;DHT22;70395;51.382;7.074;2024-03-22T09:22:09;18.30;52.30
80937;DHT22;70395;51.382;7.074;2024-03-22T09:24:35;18.40;52.60
80937;DHT22;70395;51.382;7.074;2024-03-22T09:27:00;18.40;51.80
80937;DHT22;70395;51.382;7.074;2024-03-22T09:29:29;18.50;52.00
80937;DHT22;70395;51.382;7.074;2024-03-22T09:31:55;18.60;51.40
80937;DHT22;70395;51.382;7.074;2024-03-22T09:34:21;18.70;51.30
80937;DHT22;70395;51.382;7.074;2024-03-22T09:36:47;18.80;52.20
80937;DHT22;70395;51.382;7.074;2024-03-22T09:39:13;19.00;51.20
80937;DHT22;70395;51.382;7.074;2024-03-22T09:41:43;19.20;50.60
80937;DHT22;70395;51.382;7.074;2024-03-22T09:44:13;19.50;49.70
80937;DHT22;70395;51.382;7.074;2024-03-22T09:46:42;19.70;48.60
80937;DHT22;70395;51.382;7.074;2024-03-22T09:49:10;19.90;47.70
80937;DHT22;70395;51.382;7.074;2024-03-22T09:51:37;20.00;48.30
80937;DHT22;70395;51.382;7.074;2024-03-22T09:54:04;20.10;47.50
80937;DHT22;70395;51.382;7.074;2024-03-22T09:56:31;20.10;47.60
80937;DHT22;70395;51.382;7.074;2024-03-22T09:59:00;20.10;46.80
80937;DHT22;70395;51.382;7.074;2024-03-22T10:01:26;20.10;46.60
80937;DHT22;70395;51.382;7.074;2024-03-22T10:03:53;20.00;47.10
80937;DHT22;70395;51.382;7.074;2024-03-22T10:06:20;20.00;47.00
80937;DHT22;70395;51.382;7.074;2024-03-22T10:08:47;20.00;47.20
80937;DHT22;70395;51.382;7.074;2024-03-22T10:11:13;19.90;46.60
80937;DHT22;70395;51.382;7.074;2024-03-22T10:13:39;19.90;47.70
80937;DHT22;70395;51.382;7.074;2024-03-22T10:16:05;19.90;47.90
80937;DHT22;70395;51.382;7.074;2024-03-22T10:18:33;20.00;47.20
80937;DHT22;70395;51.382;7.074;2024-03-22T10:21:00;20.00;47.30
80937;DHT22;70395;51.382;7.074;2024-03-22T10:23:27;20.00;47.30
80937;DHT22;70395;51.382;7.074;2024-03-22T10:25:55;20.00;48.00
80937;DHT22;70395;51.382;7.074;2024-03-22T10:28:22;19.90;47.20
80937;DHT22;70395;51.382;7.074;2024-03-22T10:30:49;20.00;47.60
80937;DHT22;70395;51.382;7.074;2024-03-22T10:33:18;19.90;46.60
80937;DHT22;70395;51.382;7.074;2024-03-22T10:35:59;19.90;47.20
80937;DHT22;70395;51.382;7.074;2024-03-22T10:38:26;19.90;47.40
80937;DHT22;70395;51.382;7.074;2024-03-22T10:40:52;20.00;47.60
80937;DHT22;70395;51.382;7.074;2024-03-22T10:43:19;20.00;47.60
80937;DHT22;70395;51.382;7.074;2024-03-22T10:45:48;20.00;47.60
80937;DHT22;70395;51.382;7.074;2024-03-22T10:48:17;19.90;46.90
80937;DHT22;70395;51.382;7.074;2024-03-22T10:50:47;19.90;47.40
80937;DHT22;70395;51.382;7.074;2024-03-22T10:53:19;19.90;47.20
80937;DHT22;70395;51.382;7.074;2024-03-22T10:55:51;19.80;47.10
80937;DHT22;70395;51.382;7.074;2024-03-22T10:58:22;19.70;47.60
80937;DHT22;70395;51.382;7.074;2024-03-22T11:00:53;19.60;48.10
80937;DHT22;70395;51.382;7.074;2024-03-22T11:03:22;19.50;47.90
80937;DHT22;70395;51.382;7.074;2024-03-22T11:05:53;19.50;47.80
80937;DHT22;70395;51.382;7.074;2024-03-22T11:08:29;19.40;48.10
80937;DHT22;70395;51.382;7.074;2024-03-22T11:11:10;19.40;48.20
80937;DHT22;70395;51.382;7.074;2024-03-22T11:13:39;19.30;47.80
80937;DHT22;70395;51.382;7.074;2024-03-22T11:16:05;19.40;48.50
80937;DHT22;70395;51.382;7.074;2024-03-22T11:18:32;19.40;48.40
80937;DHT22;70395;51.382;7.074;2024-03-22T11:20:59;19.50;48.90
80937;DHT22;70395;51.382;7.074;2024-03-22T11:23:25;19.50;48.40
80937;DHT22;70395;51.382;7.074;2024-03-22T11:25:51;19.60;48.30
80937;DHT22;70395;51.382;7.074;2024-03-22T11:28:17;19.60;48.10
80937;DHT22;70395;51.382;7.074;2024-03-22T11:30:43;19.60;48.20
80937;DHT22;70395;51.382;7.074;2024-03-22T11:33:10;19.70;48.50
80937;DHT22;70395;51.382;7.074;2024-03-22T11:35:36;19.80;48.70
80937;DHT22;70395;51.382;7.074;2024-03-22T11:38:02;19.80;48.80
80937;DHT22;70395;51.382;7.074;2024-03-22T11:40:30;20.00;48.70
80937;DHT22;70395;51.382;7.074;2024-03-22T11:42:59;20.10;48.60
80937;DHT22;70395;51.382;7.074;2024-03-22T11:45:27;20.30;48.10
80937;DHT22;70395;51.382;7.074;2024-03-22T11:47:54;20.40;47.70
80937;DHT22;70395;51.382;7.074;2024-03-22T11:50:20;20.50;47.60
80937;DHT22;70395;51.382;7.074;2024-03-22T11:52:46;20.50;47.20
80937;DHT22;70395;51.382;7.074;2024-03-22T11:55:14;20.50;47.20
80937;DHT22;70395;51.382;7.074;2024-03-22T11:57:40;20.30;47.20
80937;DHT22;70395;51.382;7.074;2024-03-22T12:00:07;20.20;47.40
80937;DHT22;70395;51.382;7.074;2024-03-22T12:02:38;20.00;48.00
80937;DHT22;70395;51.382;7.074;2024-03-22T12:05:05;19.90;48.30
80937;DHT22;70395;51.382;7.074;2024-03-22T12:07:31;19.80;48.40
80937;DHT22;70395;51.382;7.074;2024-03-22T12:10:00;19.70;48.50
80937;DHT22;70395;51.382;7.074;2024-03-22T12:12:26;19.60;48.70
80937;DHT22;70395;51.382;7.074;2024-03-22T12:14:52;19.50;48.90
80937;DHT22;70395;51.382;7.074;2024-03-22T12:17:18;19.40;49.20
80937;DHT22;70395;51.382;7.074;2024-03-22T12:19:44;19.30;49.40
80937;DHT22;70395;51.382;7.074;2024-03-22T12:22:10;19.20;49.70
80937;DHT22;70395;51.382;7.074;2024-03-22T12:24:36;19.10;49.80
80937;DHT22;70395;51.382;7.074;2024-03-22T12:27:03;19.00;49.80
80937;DHT22;70395;51.382;7.074;2024-03-22T12:29:28;18.90;50.20
80937;DHT22;70395;51.382;7.074;2024-03-22T12:31:54;18.90;50.20
80937;DHT22;70395;51.382;7.074;2024-03-22T12:34:20;18.80;49.90
80937;DHT22;70395;51.382;7.074;2024-03-22T12:36:46;18.70;50.00
80937;DHT22;70395;51.382;7.074;2024-03-22T12:39:12;18.60;50.20
80937;DHT22;70395;51.382;7.074;2024-03-22T12:41:38;18.50;50.50
80937;DHT22;70395;51.382;7.074;2024-03-22T12:44:04;18.40;50.80
80937;DHT22;70395;51.382;7.074;2024-03-22T12:46:30;18.30;50.80
80937;DHT22;70395;51.382;7.074;2024-03-22T12:48:56;18.30;51.10
80937;DHT22;70395;51.382;7.074;2024-03-22T12:51:21;18.20;51.20
80937;DHT22;70395;51.382;7.074;2024-03-22T12:53:47;18.20;51.50
80937;DHT22;70395;51.382;7.074;2024-03-22T12:56:13;18.10;51.40
80937;DHT22;70395;51.382;7.074;2024-03-22T12:58:39;18.00;51.60
80937;DHT22;70395;51.382;7.074;2024-03-22T13:01:05;17.90;51.60
80937;DHT22;70395;51.382;7.074;2024-03-22T13:03:33;17.90;51.90
80937;DHT22;70395;51.382;7.074;2024-03-22T13:05:59;17.80;52.10
80937;DHT22;70395;51.382;7.074;2024-03-22T13:08:25;17.70;52.10
80937;DHT22;70395;51.382;7.074;2024-03-22T13:10:50;17.70;52.30
80937;DHT22;70395;51.382;7.074;2024-03-22T13:13:18;17.60;52.30
80937;DHT22;70395;51.382;7.074;2024-03-22T13:15:44;17.50;52.60
80937;DHT22;70395;51.382;7.074;2024-03-22T13:18:12;17.40;52.80
80937;DHT22;70395;51.382;7.074;2024-03-22T13:20:39;17.40;53.00
80937;DHT22;70395;51.382;7.074;2024-03-22T13:23:05;17.40;53.30
80937;DHT22;70395;51.382;7.074;2024-03-22T13:25:31;17.30;53.30
80937;DHT22;70395;51.382;7.074;2024-03-22T13:27:57;17.30;53.50
80937;DHT22;70395;51.382;7.074;2024-03-22T13:30:23;17.20;53.60
80937;DHT22;70395;51.382;7.074;2024-03-22T13:32:49;17.20;53.70
80937;DHT22;70395;51.382;7.074;2024-03-22T13:35:15;17.10;53.90
80937;DHT22;70395;51.382;7.074;2024-03-22T13:37:41;17.10;54.00
80937;DHT22;70395;51.382;7.074;2024-03-22T13:40:07;17.00;54.00
80937;DHT22;70395;51.382;7.074;2024-03-22T13:42:34;17.00;54.10
80937;DHT22;70395;51.382;7.074;2024-03-22T13:45:00;17.00;54.10
80937;DHT22;70395;51.382;7.074;2024-03-22T13:47:27;16.90;54.20
80937;DHT22;70395;51.382;7.074;2024-03-22T13:49:56;16.80;54.30
80937;DHT22;70395;51.382;7.074;2024-03-22T13:52:22;16.80;54.30
80937;DHT22;70395;51.382;7.074;2024-03-22T13:54:48;16.70;54.30
80937;DHT22;70395;51.382;7.074;2024-03-22T13:57:13;16.60;54.50
80937;DHT22;70395;51.382;7.074;2024-03-22T13:59:39;16.60;54.70
80937;DHT22;70395;51.382;7.074;2024-03-22T14:02:06;16.50;54.80
80937;DHT22;70395;51.382;7.074;2024-03-22T14:04:34;16.40;55.10
80937;DHT22;70395;51.382;7.074;2024-03-22T14:07:00;16.40;55.20
80937;DHT22;70395;51.382;7.074;2024-03-22T14:09:33;16.40;55.40
80937;DHT22;70395;51.382;7.074;2024-03-22T14:12:00;16.30;55.30
80937;DHT22;70395;51.382;7.074;2024-03-22T14:14:33;16.30;55.70
80937;DHT22;70395;51.382;7.074;2024-03-22T14:16:59;16.30;55.80
80937;DHT22;70395;51.382;7.074;2024-03-22T14:19:25;16.30;55.70
80937;DHT22;70395;51.382;7.074;2024-03-22T14:21:50;16.20;55.70
80937;DHT22;70395;51.382;7.074;2024-03-22T14:24:16;16.20;55.90
80937;DHT22;70395;51.382;7.074;2024-03-22T14:26:42;16.10;55.80
80937;DHT22;70395;51.382;7.074;2024-03-22T14:29:09;16.20;56.00
80937;DHT22;70395;51.382;7.074;2024-03-22T14:31:35;16.10;56.10
80937;DHT22;70395;51.382;7.074;2024-03-22T14:34:02;16.10;56.20
80937;DHT22;70395;51.382;7.074;2024-03-22T14:36:28;16.10;56.20
80937;DHT22;70395;51.382;7.074;2024-03-22T14:38:54;16.00;56.40
80937;DHT22;70395;51.382;7.074;2024-03-22T14:41:20;15.90;56.40
80937;DHT22;70395;51.382;7.074;2024-03-22T14:43:46;15.90;56.60
80937;DHT22;70395;51.382;7.074;2024-03-22T14:46:12;15.80;56.70
80937;DHT22;70395;51.382;7.074;2024-03-22T14:48:37;15.80;57.50
80937;DHT22;70395;51.382;7.074;2024-03-22T14:51:03;15.70;58.10
80937;DHT22;70395;51.382;7.074;2024-03-22T14:53:29;15.60;58.70
80937;DHT22;70395;51.382;7.074;2024-03-22T14:56:00;15.50;59.30
80937;DHT22;70395;51.382;7.074;2024-03-22T14:58:34;15.40;59.50
80937;DHT22;70395;51.382;7.074;2024-03-22T15:01:02;15.30;59.40
80937;DHT22;70395;51.382;7.074;2024-03-22T15:03:29;15.20;60.10
80937;DHT22;70395;51.382;7.074;2024-03-22T15:05:57;15.10;60.30
80937;DHT22;70395;51.382;7.074;2024-03-22T15:08:27;15.00;61.30
80937;DHT22;70395;51.382;7.074;2024-03-22T15:10:54;14.90;61.90
80937;DHT22;70395;51.382;7.074;2024-03-22T15:13:20;14.80;61.80
80937;DHT22;70395;51.382;7.074;2024-03-22T15:15:53;14.70;62.20
80937;DHT22;70395;51.382;7.074;2024-03-22T15:18:20;14.60;62.90
80937;DHT22;70395;51.382;7.074;2024-03-22T15:20:46;14.60;62.30
80937;DHT22;70395;51.382;7.074;2024-03-22T15:23:13;14.50;62.70
80937;DHT22;70395;51.382;7.074;2024-03-22T15:25:40;14.50;62.90
80937;DHT22;70395;51.382;7.074;2024-03-22T15:28:09;14.40;63.40